Jonathan C Moran — WDI5374 — position and weather

sailwx.info

Track history (hours):
 
Tides and Currents Weather Stations Pressure Air Temp Water Temp Dewpoint Dewpoint Depression Visibility Wind Speed Wind Dir Waves Ship Positions

Jonathan C Moran

Owner: Moran Towing Corporation, New Canaan, CT. More information available from US FCC via Universal Licensing System and Coast Guard Vessel Documentation Center.

Last reported at 2018-May-25 18:25 UTC. Time now 2018-May-25 18:49 UTC.
Position N 40°39' W 074°08'.

Length 28 m; draft 5.5 m.

Type: Tug. MMSI: 367707930.

Date/timePositionNaut miles runAvg speedWind from/ knotsBaromVisibWave heightAir tempDewpointWater temp
2018-May-25 18:25N 40°39' W 074°08'1 1.6
2018-May-25 18:00N 40°39' W 074°09'3 4.5
2018-May-25 17:19N 40°42' W 074°08'0 0.4
2018-May-25 16:18N 40°41' W 074°08'1 0.9
2018-May-25 15:35N 40°41' W 074°09'0 4.6
2018-May-25 15:30N 40°41' W 074°09'2 3.8
2018-May-25 14:54N 40°39' W 074°07'3 6.9
2018-May-25 14:31N 40°39' W 074°04'2 4.3
2018-May-25 14:01N 40°39' W 074°06'1 0.6
2018-May-25 12:11N 40°39' W 074°08'311.1
2018-May-25 11:54N 40°38' W 074°12'1 1.2
2018-May-25 11:25N 40°38' W 074°12'0 0.0
2018-May-25 11:00N 40°38' W 074°12'0 0.0
2018-May-25 10:30N 40°38' W 074°12'1 2.4
2018-May-25 10:00N 40°39' W 074°11'3 6.1
2018-May-25 09:30N 40°39' W 074°07'3 5.3
2018-May-25 09:00N 40°39' W 074°04'0 0.4
2018-May-25 08:30N 40°39' W 074°04'3 0.3
2018-May-24 22:51N 40°38' W 074°08'2 5.1
2018-May-24 22:28N 40°39' W 074°05'0 0.0
2018-May-24 21:59N 40°39' W 074°05'0 0.0
2018-May-24 21:30N 40°39' W 074°05'1 1.9
2018-May-24 21:00N 40°39' W 074°04'4 3.2
2018-May-24 19:45N 40°35' W 074°02'1 2.3
2018-May-24 19:21N 40°36' W 074°03'310.0
2018-May-24 19:00N 40°39' W 074°05'2 0.6
2018-May-24 15:01N 40°38' W 074°08'0 1.5
2018-May-24 15:00N 40°39' W 074°08'4 6.8
2018-May-24 14:29N 40°42' W 074°09'0 0.0
2018-May-24 13:30N 40°42' W 074°09'4 0.8
2018-May-24 08:59N 40°38' W 074°08'0 0.0
2018-May-24 08:20N 40°38' W 074°08'0 0.0
2018-May-24 07:38N 40°38' W 074°08'0 0.0
2018-May-24 07:26N 40°38' W 074°08'0 0.0
2018-May-24 06:56N 40°38' W 074°08'0 0.0
2018-May-24 06:26N 40°38' W 074°08'0 0.0
2018-May-24 05:50N 40°38' W 074°08'0 0.0
2018-May-24 05:08N 40°38' W 074°08'0 0.0
2018-May-24 04:56N 40°38' W 074°08'0 0.0
2018-May-24 04:26N 40°38' W 074°08'1 1.5
2018-May-24 04:00N 40°39' W 074°09'2 4.8
2018-May-24 03:30N 40°41' W 074°09'0 0.7
2018-May-24 03:00N 40°41' W 074°09'2 3.4
2018-May-24 02:22N 40°39' W 074°08'2 5.6
2018-May-24 01:58N 40°39' W 074°06'3 3.2
2018-May-24 00:56N 40°36' W 074°03'3 6.6
2018-May-24 00:30N 40°39' W 074°04'3 0.6
2018-May-23 20:13N 40°38' W 074°08'0 0.4
2018-May-23 19:57N 40°39' W 074°08'2 3.8
2018-May-23 19:30N 40°40' W 074°08'1 1.8
2018-May-23 19:00N 40°41' W 074°09'2 3.6
2018-May-23 18:20N 40°39' W 074°09'1 0.1
2018-May-23 10:51N 40°38' W 074°08'3 8.9
2018-May-23 10:30N 40°41' W 074°08'0 0.3
2018-May-23 09:58N 40°42' W 074°08'2 3.2
2018-May-23 09:30N 40°40' W 074°08'2 4.2
2018-May-23 08:56N 40°39' W 074°06'2 5.0
2018-May-23 08:30N 40°38' W 074°03'4 3.0
2018-May-23 07:17N 40°38' W 074°08'0 1.6
2018-May-23 06:58N 40°39' W 074°08'1 2.8
2018-May-23 06:30N 40°40' W 074°08'0 0.2
2018-May-23 05:54N 40°40' W 074°09'0 0.7
2018-May-23 05:26N 40°40' W 074°09'4 7.7
2018-May-23 04:59N 40°39' W 074°04'1 1.7
2018-May-23 04:30N 40°40' W 074°04'1 1.5
2018-May-23 04:01N 40°40' W 074°05'3 5.3
2018-May-23 03:28N 40°39' W 074°08'0 0.1
2018-May-23 00:51N 40°39' W 074°07'0 0.2
2018-May-23 00:30N 40°39' W 074°08'1 2.6
2018-May-23 00:00N 40°40' W 074°08'1 2.8
2018-May-22 23:30N 40°41' W 074°09'0 0.2
2018-May-22 23:00N 40°41' W 074°09'0 0.0
2018-May-22 22:30N 40°41' W 074°09'3 4.1
2018-May-22 21:47N 40°39' W 074°07'1 5.0
2018-May-22 21:29N 40°39' W 074°09'3 1.6
2018-May-22 19:47N 40°42' W 074°09'2 3.7
2018-May-22 19:16N 40°40' W 074°08'4 1.3
2018-May-22 16:26N 40°38' W 074°12'3 5.6
2018-May-22 15:58N 40°39' W 074°09'1 1.6
2018-May-22 15:28N 40°38' W 074°08'0 0.0
2018-May-22 15:00N 40°38' W 074°08'0 0.0
2018-May-22 14:30N 40°38' W 074°08'2 4.6
2018-May-22 14:00N 40°41' W 074°09'1 1.9
2018-May-22 13:29N 40°40' W 074°09'2 3.2
2018-May-22 13:00N 40°39' W 074°07'3 5.2
2018-May-22 12:30N 40°39' W 074°04'2 3.0
2018-May-22 12:00N 40°39' W 074°06'2 4.7
2018-May-22 11:30N 40°40' W 074°08'1 1.6
2018-May-22 11:00N 40°41' W 074°09'0 0.9
2018-May-22 10:30N 40°40' W 074°08'1 1.4
2018-May-22 09:59N 40°40' W 074°09'1 3.0
2018-May-22 09:29N 40°39' W 074°08'2 4.0
2018-May-22 09:00N 40°40' W 074°08'1 1.6
2018-May-22 08:17N 40°41' W 074°09'2 6.3
2018-May-22 08:00N 40°40' W 074°09'1 1.3
2018-May-22 07:01N 40°38' W 074°08'0 0.0
2018-May-22 07:00N 40°38' W 074°08'0 0.0
2018-May-22 01:15N 40°38' W 074°08'0 0.0
2018-May-22 00:59N 40°38' W 074°08'0 0.1
2018-May-21 23:45N 40°39' W 074°08'1 0.4
2018-May-21 21:22N 40°39' W 074°07'1 1.4
2018-May-21 20:42N 40°38' W 074°08'2 1.9
2018-May-21 19:49N 40°39' W 074°06'2 5.2
2018-May-21 19:30N 40°38' W 074°04'3 1.5
2018-May-21 17:16N 40°38' W 074°08'0 0.0
2018-May-21 16:53N 40°38' W 074°08'0 0.0
2018-May-21 16:26N 40°38' W 074°08'0 0.0
2018-May-21 15:57N 40°38' W 074°08'1 2.7
2018-May-21 15:24N 40°40' W 074°09'0 0.1
2018-May-21 14:59N 40°40' W 074°09'1 2.4
2018-May-21 14:29N 40°39' W 074°09'3 6.9
2018-May-21 14:00N 40°39' W 074°05'2 3.0
2018-May-21 13:30N 40°38' W 074°04'3 1.1
2018-May-21 10:29N 40°38' W 074°08'2 5.1
2018-May-21 10:00N 40°41' W 074°09'0 0.0
2018-May-21 09:29N 40°41' W 074°09'2 3.0
2018-May-21 08:43N 40°39' W 074°09'2 5.8
2018-May-21 08:28N 40°39' W 074°07'3 5.2
2018-May-21 07:59N 40°38' W 074°03'2 3.8
2018-May-21 07:27N 40°36' W 074°03'3 7.7
2018-May-21 07:00N 40°39' W 074°06'2 0.2
2018-May-20 23:43N 40°39' W 074°08'2 7.4
2018-May-20 23:30N 40°40' W 074°08'1 0.6
2018-May-20 22:36N 40°41' W 074°08'1 6.2
2018-May-20 22:30N 40°40' W 074°08'2 4.2
2018-May-20 21:56N 40°39' W 074°06'2 5.2
2018-May-20 21:30N 40°38' W 074°03'4 7.3
2018-May-20 21:00N 40°38' W 074°08'0 0.0
2018-May-20 20:30N 40°38' W 074°08'0 0.0
2018-May-20 19:56N 40°38' W 074°08'0 0.0
2018-May-20 19:28N 40°38' W 074°08'0 0.0
2018-May-20 19:00N 40°38' W 074°08'0 0.0
2018-May-20 18:30N 40°38' W 074°08'0 0.0
2018-May-20 18:00N 40°38' W 074°08'0 0.0
2018-May-20 17:30N 40°38' W 074°08'0 0.0
2018-May-20 17:00N 40°38' W 074°08'0 0.0
2018-May-20 16:30N 40°38' W 074°08'1 2.4
2018-May-20 15:54N 40°40' W 074°09'0 0.2
2018-May-20 15:28N 40°40' W 074°09'2 3.6
2018-May-20 14:53N 40°39' W 074°06'3 6.9
2018-May-20 14:30N 40°38' W 074°03'1 1.4
2018-May-20 14:00N 40°39' W 074°03'2 2.5
2018-May-20 13:13N 40°40' W 074°05'0 0.3
2018-May-20 13:00N 40°40' W 074°05'4 2.0
2018-May-20 11:07N 40°37' W 074°03'213.7
2018-May-20 11:00N 40°38' W 074°04'2 0.4
2018-May-20 06:05N 40°36' W 074°03'3 7.1
2018-May-20 05:44N 40°39' W 074°04'1 3.6
2018-May-20 05:28N 40°39' W 074°03'3 0.3
2018-May-19 19:44N 40°39' W 074°08'2 9.4
2018-May-19 19:30N 40°39' W 074°05'1 2.0
2018-May-19 19:00N 40°40' W 074°04'1 1.8
2018-May-19 18:30N 40°40' W 074°05'2 3.9
2018-May-19 18:00N 40°39' W 074°07'1 0.1
2018-May-19 04:05N 40°39' W 074°08'0 3.8
2018-May-19 03:57N 40°39' W 074°08'2 4.2
2018-May-19 03:30N 40°40' W 074°08'1 2.1
2018-May-19 02:58N 40°41' W 074°09'3 5.4
2018-May-19 02:29N 40°39' W 074°09'1 0.4
2018-May-19 00:58N 40°39' W 074°08'3 4.7
2018-May-19 00:17N 40°42' W 074°09'1 1.3
2018-May-18 23:33N 40°41' W 074°08'0 4.5
2018-May-18 23:29N 40°41' W 074°08'2 3.8
2018-May-18 22:56N 40°39' W 074°09'3 5.9
2018-May-18 22:30N 40°39' W 074°06'2 5.0
2018-May-18 22:00N 40°38' W 074°03'3 6.4
2018-May-18 21:30N 40°39' W 074°07'1 1.5
2018-May-18 20:59N 40°38' W 074°08'0 0.0
2018-May-18 20:29N 40°38' W 074°08'0 0.0
2018-May-18 20:00N 40°38' W 074°08'0 0.0
2018-May-18 19:29N 40°38' W 074°08'0 0.0
2018-May-18 19:00N 40°38' W 074°08'2 2.6
2018-May-18 18:22N 40°39' W 074°06'2 4.5
2018-May-18 18:00N 40°40' W 074°05'0 0.2
2018-May-18 17:30N 40°40' W 074°05'2 3.1
2018-May-18 16:55N 40°39' W 074°03'2 4.5
2018-May-18 16:30N 40°37' W 074°03'3 6.2
2018-May-18 15:58N 40°39' W 074°06'1 0.0
2018-May-18 04:46N 40°39' W 074°06'2 7.2
2018-May-18 04:30N 40°39' W 074°03'1 2.8
2018-May-18 04:00N 40°40' W 074°05'0 0.3
2018-May-18 03:30N 40°40' W 074°05'2 3.3
2018-May-18 03:00N 40°39' W 074°04'3 6.0
2018-May-18 02:30N 40°39' W 074°08'1 2.8
2018-May-18 01:59N 40°40' W 074°08'1 1.9
2018-May-18 01:30N 40°41' W 074°09'0 0.3
2018-May-18 00:54N 40°41' W 074°09'3 0.6
2018-May-17 20:29N 40°39' W 074°08'0 0.0
2018-May-17 14:47N 40°38' W 074°08'2 4.9
2018-May-17 14:23N 40°39' W 074°05'1 3.4
2018-May-17 14:00N 40°39' W 074°07'1 2.9
2018-May-17 13:30N 40°40' W 074°09'1 2.6
2018-May-17 13:00N 40°41' W 074°09'0 0.1
2018-May-17 12:30N 40°41' W 074°09'3 1.3
2018-May-17 09:52N 40°39' W 074°05'410.4
2018-May-17 09:30N 40°41' W 074°01'0 0.4
2018-May-17 09:00N 40°41' W 074°01'0 0.1
2018-May-17 08:31N 40°41' W 074°01'2 4.9
2018-May-17 08:00N 40°39' W 074°03'4 0.7
2018-May-17 01:40N 40°38' W 074°08'2 9.5
2018-May-17 01:30N 40°40' W 074°08'0 0.4
2018-May-17 00:29N 40°40' W 074°08'2 3.8
2018-May-16 23:59N 40°39' W 074°07'3 5.8
2018-May-16 23:30N 40°38' W 074°03'4 8.2
2018-May-16 22:59N 40°39' W 074°09'2 4.7
2018-May-16 22:28N 40°41' W 074°08'3 1.4
2018-May-16 20:33N 40°39' W 074°09'310.9
2018-May-16 20:19N 40°39' W 074°05'2 4.7
2018-May-16 19:50N 40°37' W 074°03'1 2.6
2018-May-16 19:30N 40°38' W 074°03'2 3.8
2018-May-16 19:00N 40°39' W 074°05'1 2.3
2018-May-16 18:31N 40°39' W 074°07'1 0.4
2018-May-16 16:22N 40°39' W 074°08'2 6.5
2018-May-16 15:59N 40°41' W 074°09'0 0.3
2018-May-16 15:30N 40°41' W 074°09'2 3.9
2018-May-16 14:57N 40°39' W 074°09'3 5.6
2018-May-16 14:29N 40°39' W 074°06'3 6.0
2018-May-16 13:59N 40°37' W 074°03'3 6.5
2018-May-16 13:30N 40°39' W 074°06'2 4.2
2018-May-16 12:56N 40°39' W 074°09'1 2.3
2018-May-16 12:30N 40°40' W 074°08'1 1.4
2018-May-16 12:00N 40°41' W 074°09'0 0.2
2018-May-16 11:17N 40°41' W 074°09'0 0.0
2018-May-16 10:58N 40°41' W 074°09'1 1.9
2018-May-16 10:29N 40°42' W 074°08'0 0.1
2018-May-16 09:57N 40°42' W 074°08'3 6.1
2018-May-16 09:26N 40°39' W 074°09'2 5.3
2018-May-16 09:00N 40°39' W 074°06'2 3.1
2018-May-16 08:30N 40°39' W 074°04'3 2.0
2018-May-16 07:02N 40°38' W 074°08'0 0.0
2018-May-16 06:36N 40°38' W 074°08'0 0.0
2018-May-16 06:26N 40°38' W 074°08'1 0.4
2018-May-16 03:50N 40°39' W 074°07'2 6.4
2018-May-16 03:30N 40°40' W 074°04'0 0.8
2018-May-16 03:00N 40°40' W 074°05'1 2.4
2018-May-16 02:30N 40°39' W 074°03'3 6.5
2018-May-16 02:00N 40°36' W 074°03'3 5.5
2018-May-16 01:30N 40°39' W 074°04'3 5.5
2018-May-16 00:59N 40°38' W 074°08'0 0.0
2018-May-16 00:30N 40°38' W 074°08'0 0.0
2018-May-16 00:00N 40°38' W 074°08'0 0.0
2018-May-15 23:30N 40°38' W 074°08'0 0.0
2018-May-15 23:00N 40°38' W 074°08'1 1.1
2018-May-15 22:30N 40°38' W 074°08'2 4.5
2018-May-15 22:00N 40°41' W 074°09'0 0.0
2018-May-15 21:30N 40°41' W 074°09'0 0.0
2018-May-15 21:00N 40°41' W 074°09'0 0.0
2018-May-15 20:30N 40°41' W 074°09'0 0.1
2018-May-15 20:00N 40°41' W 074°09'1 1.6
2018-May-15 19:30N 40°40' W 074°08'1 2.6
2018-May-15 18:59N 40°39' W 074°08'2 4.9
2018-May-15 18:29N 40°39' W 074°05'  
Track history (hours):
 
Tides and Currents Weather Stations Pressure Air Temp Water Temp Dewpoint Dewpoint Depression Visibility Wind Speed Wind Dir Waves Ship Positions

Jonathan C Moran

Owner: Moran Towing Corporation, New Canaan, CT. More information available from US FCC via Universal Licensing System and Coast Guard Vessel Documentation Center.

Last reported at 2018-May-25 18:25 UTC. Time now 2018-May-25 18:49 UTC.
Position N 40°39' W 074°08'.

Length 28 m; draft 5.5 m.

Type: Tug. MMSI: 367707930.

Date/timePositionNaut miles runAvg speedWind from/ knotsBaromVisibWave heightAir tempDewpointWater temp
2018-May-25 18:25N 40°39' W 074°08'1 1.6
2018-May-25 18:00N 40°39' W 074°09'3 4.5
2018-May-25 17:19N 40°42' W 074°08'0 0.4
2018-May-25 16:18N 40°41' W 074°08'1 0.9
2018-May-25 15:35N 40°41' W 074°09'0 4.6
2018-May-25 15:30N 40°41' W 074°09'2 3.8
2018-May-25 14:54N 40°39' W 074°07'3 6.9
2018-May-25 14:31N 40°39' W 074°04'2 4.3
2018-May-25 14:01N 40°39' W 074°06'1 0.6
2018-May-25 12:11N 40°39' W 074°08'311.1
2018-May-25 11:54N 40°38' W 074°12'1 1.2
2018-May-25 11:25N 40°38' W 074°12'0 0.0
2018-May-25 11:00N 40°38' W 074°12'0 0.0
2018-May-25 10:30N 40°38' W 074°12'1 2.4
2018-May-25 10:00N 40°39' W 074°11'3 6.1
2018-May-25 09:30N 40°39' W 074°07'3 5.3
2018-May-25 09:00N 40°39' W 074°04'0 0.4
2018-May-25 08:30N 40°39' W 074°04'3 0.3
2018-May-24 22:51N 40°38' W 074°08'2 5.1
2018-May-24 22:28N 40°39' W 074°05'0 0.0
2018-May-24 21:59N 40°39' W 074°05'0 0.0
2018-May-24 21:30N 40°39' W 074°05'1 1.9
2018-May-24 21:00N 40°39' W 074°04'4 3.2
2018-May-24 19:45N 40°35' W 074°02'1 2.3
2018-May-24 19:21N 40°36' W 074°03'310.0
2018-May-24 19:00N 40°39' W 074°05'2 0.6
2018-May-24 15:01N 40°38' W 074°08'0 1.5
2018-May-24 15:00N 40°39' W 074°08'4 6.8
2018-May-24 14:29N 40°42' W 074°09'0 0.0
2018-May-24 13:30N 40°42' W 074°09'4 0.8
2018-May-24 08:59N 40°38' W 074°08'0 0.0
2018-May-24 08:20N 40°38' W 074°08'0 0.0
2018-May-24 07:38N 40°38' W 074°08'0 0.0
2018-May-24 07:26N 40°38' W 074°08'0 0.0
2018-May-24 06:56N 40°38' W 074°08'0 0.0
2018-May-24 06:26N 40°38' W 074°08'0 0.0
2018-May-24 05:50N 40°38' W 074°08'0 0.0
2018-May-24 05:08N 40°38' W 074°08'0 0.0
2018-May-24 04:56N 40°38' W 074°08'0 0.0
2018-May-24 04:26N 40°38' W 074°08'1 1.5
2018-May-24 04:00N 40°39' W 074°09'2 4.8
2018-May-24 03:30N 40°41' W 074°09'0 0.7
2018-May-24 03:00N 40°41' W 074°09'2 3.4
2018-May-24 02:22N 40°39' W 074°08'2 5.6
2018-May-24 01:58N 40°39' W 074°06'3 3.2
2018-May-24 00:56N 40°36' W 074°03'3 6.6
2018-May-24 00:30N 40°39' W 074°04'3 0.6
2018-May-23 20:13N 40°38' W 074°08'0 0.4
2018-May-23 19:57N 40°39' W 074°08'2 3.8
2018-May-23 19:30N 40°40' W 074°08'1 1.8
2018-May-23 19:00N 40°41' W 074°09'2 3.6
2018-May-23 18:20N 40°39' W 074°09'1 0.1
2018-May-23 10:51N 40°38' W 074°08'3 8.9
2018-May-23 10:30N 40°41' W 074°08'0 0.3
2018-May-23 09:58N 40°42' W 074°08'2 3.2
2018-May-23 09:30N 40°40' W 074°08'2 4.2
2018-May-23 08:56N 40°39' W 074°06'2 5.0
2018-May-23 08:30N 40°38' W 074°03'4 3.0
2018-May-23 07:17N 40°38' W 074°08'0 1.6
2018-May-23 06:58N 40°39' W 074°08'1 2.8
2018-May-23 06:30N 40°40' W 074°08'0 0.2
2018-May-23 05:54N 40°40' W 074°09'0 0.7
2018-May-23 05:26N 40°40' W 074°09'4 7.7
2018-May-23 04:59N 40°39' W 074°04'1 1.7
2018-May-23 04:30N 40°40' W 074°04'1 1.5
2018-May-23 04:01N 40°40' W 074°05'3 5.3
2018-May-23 03:28N 40°39' W 074°08'0 0.1
2018-May-23 00:51N 40°39' W 074°07'0 0.2
2018-May-23 00:30N 40°39' W 074°08'1 2.6
2018-May-23 00:00N 40°40' W 074°08'1 2.8
2018-May-22 23:30N 40°41' W 074°09'0 0.2
2018-May-22 23:00N 40°41' W 074°09'0 0.0
2018-May-22 22:30N 40°41' W 074°09'3 4.1
2018-May-22 21:47N 40°39' W 074°07'1 5.0
2018-May-22 21:29N 40°39' W 074°09'3 1.6
2018-May-22 19:47N 40°42' W 074°09'2 3.7
2018-May-22 19:16N 40°40' W 074°08'4 1.3
2018-May-22 16:26N 40°38' W 074°12'3 5.6
2018-May-22 15:58N 40°39' W 074°09'1 1.6
2018-May-22 15:28N 40°38' W 074°08'0 0.0
2018-May-22 15:00N 40°38' W 074°08'0 0.0
2018-May-22 14:30N 40°38' W 074°08'2 4.6
2018-May-22 14:00N 40°41' W 074°09'1 1.9
2018-May-22 13:29N 40°40' W 074°09'2 3.2
2018-May-22 13:00N 40°39' W 074°07'3 5.2
2018-May-22 12:30N 40°39' W 074°04'2 3.0
2018-May-22 12:00N 40°39' W 074°06'2 4.7
2018-May-22 11:30N 40°40' W 074°08'1 1.6
2018-May-22 11:00N 40°41' W 074°09'0 0.9
2018-May-22 10:30N 40°40' W 074°08'1 1.4
2018-May-22 09:59N 40°40' W 074°09'1 3.0
2018-May-22 09:29N 40°39' W 074°08'2 4.0
2018-May-22 09:00N 40°40' W 074°08'1 1.6
2018-May-22 08:17N 40°41' W 074°09'2 6.3
2018-May-22 08:00N 40°40' W 074°09'1 1.3
2018-May-22 07:01N 40°38' W 074°08'0 0.0
2018-May-22 07:00N 40°38' W 074°08'0 0.0
2018-May-22 01:15N 40°38' W 074°08'0 0.0
2018-May-22 00:59N 40°38' W 074°08'0 0.1
2018-May-21 23:45N 40°39' W 074°08'1 0.4
2018-May-21 21:22N 40°39' W 074°07'1 1.4
2018-May-21 20:42N 40°38' W 074°08'2 1.9
2018-May-21 19:49N 40°39' W 074°06'2 5.2
2018-May-21 19:30N 40°38' W 074°04'3 1.5
2018-May-21 17:16N 40°38' W 074°08'0 0.0
2018-May-21 16:53N 40°38' W 074°08'0 0.0
2018-May-21 16:26N 40°38' W 074°08'0 0.0
2018-May-21 15:57N 40°38' W 074°08'1 2.7
2018-May-21 15:24N 40°40' W 074°09'0 0.1
2018-May-21 14:59N 40°40' W 074°09'1 2.4
2018-May-21 14:29N 40°39' W 074°09'3 6.9
2018-May-21 14:00N 40°39' W 074°05'2 3.0
2018-May-21 13:30N 40°38' W 074°04'3 1.1
2018-May-21 10:29N 40°38' W 074°08'2 5.1
2018-May-21 10:00N 40°41' W 074°09'0 0.0
2018-May-21 09:29N 40°41' W 074°09'2 3.0
2018-May-21 08:43N 40°39' W 074°09'2 5.8
2018-May-21 08:28N 40°39' W 074°07'3 5.2
2018-May-21 07:59N 40°38' W 074°03'2 3.8
2018-May-21 07:27N 40°36' W 074°03'3 7.7
2018-May-21 07:00N 40°39' W 074°06'2 0.2
2018-May-20 23:43N 40°39' W 074°08'2 7.4
2018-May-20 23:30N 40°40' W 074°08'1 0.6
2018-May-20 22:36N 40°41' W 074°08'1 6.2
2018-May-20 22:30N 40°40' W 074°08'2 4.2
2018-May-20 21:56N 40°39' W 074°06'2 5.2
2018-May-20 21:30N 40°38' W 074°03'4 7.3
2018-May-20 21:00N 40°38' W 074°08'0 0.0
2018-May-20 20:30N 40°38' W 074°08'0 0.0
2018-May-20 19:56N 40°38' W 074°08'0 0.0
2018-May-20 19:28N 40°38' W 074°08'0 0.0
2018-May-20 19:00N 40°38' W 074°08'0 0.0
2018-May-20 18:30N 40°38' W 074°08'0 0.0
2018-May-20 18:00N 40°38' W 074°08'0 0.0
2018-May-20 17:30N 40°38' W 074°08'0 0.0
2018-May-20 17:00N 40°38' W 074°08'0 0.0
2018-May-20 16:30N 40°38' W 074°08'1 2.4
2018-May-20 15:54N 40°40' W 074°09'0 0.2
2018-May-20 15:28N 40°40' W 074°09'2 3.6
2018-May-20 14:53N 40°39' W 074°06'3 6.9
2018-May-20 14:30N 40°38' W 074°03'1 1.4
2018-May-20 14:00N 40°39' W 074°03'2 2.5
2018-May-20 13:13N 40°40' W 074°05'0 0.3
2018-May-20 13:00N 40°40' W 074°05'4 2.0
2018-May-20 11:07N 40°37' W 074°03'213.7
2018-May-20 11:00N 40°38' W 074°04'2 0.4
2018-May-20 06:05N 40°36' W 074°03'3 7.1
2018-May-20 05:44N 40°39' W 074°04'1 3.6
2018-May-20 05:28N 40°39' W 074°03'3 0.3
2018-May-19 19:44N 40°39' W 074°08'2 9.4
2018-May-19 19:30N 40°39' W 074°05'1 2.0
2018-May-19 19:00N 40°40' W 074°04'1 1.8
2018-May-19 18:30N 40°40' W 074°05'2 3.9
2018-May-19 18:00N 40°39' W 074°07'1 0.1
2018-May-19 04:05N 40°39' W 074°08'0 3.8
2018-May-19 03:57N 40°39' W 074°08'2 4.2
2018-May-19 03:30N 40°40' W 074°08'1 2.1
2018-May-19 02:58N 40°41' W 074°09'3 5.4
2018-May-19 02:29N 40°39' W 074°09'1 0.4
2018-May-19 00:58N 40°39' W 074°08'3 4.7
2018-May-19 00:17N 40°42' W 074°09'1 1.3
2018-May-18 23:33N 40°41' W 074°08'0 4.5
2018-May-18 23:29N 40°41' W 074°08'2 3.8
2018-May-18 22:56N 40°39' W 074°09'3 5.9
2018-May-18 22:30N 40°39' W 074°06'2 5.0
2018-May-18 22:00N 40°38' W 074°03'3 6.4
2018-May-18 21:30N 40°39' W 074°07'1 1.5
2018-May-18 20:59N 40°38' W 074°08'0 0.0
2018-May-18 20:29N 40°38' W 074°08'0 0.0
2018-May-18 20:00N 40°38' W 074°08'0 0.0
2018-May-18 19:29N 40°38' W 074°08'0 0.0
2018-May-18 19:00N 40°38' W 074°08'2 2.6
2018-May-18 18:22N 40°39' W 074°06'2 4.5
2018-May-18 18:00N 40°40' W 074°05'0 0.2
2018-May-18 17:30N 40°40' W 074°05'2 3.1
2018-May-18 16:55N 40°39' W 074°03'2 4.5
2018-May-18 16:30N 40°37' W 074°03'3 6.2
2018-May-18 15:58N 40°39' W 074°06'1 0.0
2018-May-18 04:46N 40°39' W 074°06'2 7.2
2018-May-18 04:30N 40°39' W 074°03'1 2.8
2018-May-18 04:00N 40°40' W 074°05'0 0.3
2018-May-18 03:30N 40°40' W 074°05'2 3.3
2018-May-18 03:00N 40°39' W 074°04'3 6.0
2018-May-18 02:30N 40°39' W 074°08'1 2.8
2018-May-18 01:59N 40°40' W 074°08'1 1.9
2018-May-18 01:30N 40°41' W 074°09'0 0.3
2018-May-18 00:54N 40°41' W 074°09'3 0.6
2018-May-17 20:29N 40°39' W 074°08'0 0.0
2018-May-17 14:47N 40°38' W 074°08'2 4.9
2018-May-17 14:23N 40°39' W 074°05'1 3.4
2018-May-17 14:00N 40°39' W 074°07'1 2.9
2018-May-17 13:30N 40°40' W 074°09'1 2.6
2018-May-17 13:00N 40°41' W 074°09'0 0.1
2018-May-17 12:30N 40°41' W 074°09'3 1.3
2018-May-17 09:52N 40°39' W 074°05'410.4
2018-May-17 09:30N 40°41' W 074°01'0 0.4
2018-May-17 09:00N 40°41' W 074°01'0 0.1
2018-May-17 08:31N 40°41' W 074°01'2 4.9
2018-May-17 08:00N 40°39' W 074°03'4 0.7
2018-May-17 01:40N 40°38' W 074°08'2 9.5
2018-May-17 01:30N 40°40' W 074°08'0 0.4
2018-May-17 00:29N 40°40' W 074°08'2 3.8
2018-May-16 23:59N 40°39' W 074°07'3 5.8
2018-May-16 23:30N 40°38' W 074°03'4 8.2
2018-May-16 22:59N 40°39' W 074°09'2 4.7
2018-May-16 22:28N 40°41' W 074°08'3 1.4
2018-May-16 20:33N 40°39' W 074°09'310.9
2018-May-16 20:19N 40°39' W 074°05'2 4.7
2018-May-16 19:50N 40°37' W 074°03'1 2.6
2018-May-16 19:30N 40°38' W 074°03'2 3.8
2018-May-16 19:00N 40°39' W 074°05'1 2.3
2018-May-16 18:31N 40°39' W 074°07'1 0.4
2018-May-16 16:22N 40°39' W 074°08'2 6.5
2018-May-16 15:59N 40°41' W 074°09'0 0.3
2018-May-16 15:30N 40°41' W 074°09'2 3.9
2018-May-16 14:57N 40°39' W 074°09'3 5.6
2018-May-16 14:29N 40°39' W 074°06'3 6.0
2018-May-16 13:59N 40°37' W 074°03'3 6.5
2018-May-16 13:30N 40°39' W 074°06'2 4.2
2018-May-16 12:56N 40°39' W 074°09'1 2.3
2018-May-16 12:30N 40°40' W 074°08'1 1.4
2018-May-16 12:00N 40°41' W 074°09'0 0.2
2018-May-16 11:17N 40°41' W 074°09'0 0.0
2018-May-16 10:58N 40°41' W 074°09'1 1.9
2018-May-16 10:29N 40°42' W 074°08'0 0.1
2018-May-16 09:57N 40°42' W 074°08'3 6.1
2018-May-16 09:26N 40°39' W 074°09'2 5.3
2018-May-16 09:00N 40°39' W 074°06'2 3.1
2018-May-16 08:30N 40°39' W 074°04'3 2.0
2018-May-16 07:02N 40°38' W 074°08'0 0.0
2018-May-16 06:36N 40°38' W 074°08'0 0.0
2018-May-16 06:26N 40°38' W 074°08'1 0.4
2018-May-16 03:50N 40°39' W 074°07'2 6.4
2018-May-16 03:30N 40°40' W 074°04'0 0.8
2018-May-16 03:00N 40°40' W 074°05'1 2.4
2018-May-16 02:30N 40°39' W 074°03'3 6.5
2018-May-16 02:00N 40°36' W 074°03'3 5.5
2018-May-16 01:30N 40°39' W 074°04'3 5.5
2018-May-16 00:59N 40°38' W 074°08'0 0.0
2018-May-16 00:30N 40°38' W 074°08'0 0.0
2018-May-16 00:00N 40°38' W 074°08'0 0.0
2018-May-15 23:30N 40°38' W 074°08'0 0.0
2018-May-15 23:00N 40°38' W 074°08'1 1.1
2018-May-15 22:30N 40°38' W 074°08'2 4.5
2018-May-15 22:00N 40°41' W 074°09'0 0.0
2018-May-15 21:30N 40°41' W 074°09'0 0.0
2018-May-15 21:00N 40°41' W 074°09'0 0.0
2018-May-15 20:30N 40°41' W 074°09'0 0.1
2018-May-15 20:00N 40°41' W 074°09'1 1.6
2018-May-15 19:30N 40°40' W 074°08'1 2.6
2018-May-15 18:59N 40°39' W 074°08'2 4.9
2018-May-15 18:29N 40°39' W 074°05'  

Dump ship's entire track history